This is the latest recevied weather packets stored in our database for station/object NK7E. If no packets are shown the sender has not sent any weather packets the latest 10 day(s).
| Time | Temp. | Humidity | Pressure | Rain* | Wind** | Luminosity | Snow |
|---|---|---|---|---|---|---|---|
| 1777851917 | 31.67° C | 13% | 1009.9 hPa | 0 mm | - | 402 W/m² | - |
| 1777851317 | 31.67° C | 13% | 1009.8 hPa | 0 mm | - | 476 W/m² | - |
| 1777850717 | 31.67° C | 13% | 1010 hPa | 0 mm | - | 486 W/m² | - |
| 1777850117 | 32.22° C | 14% | 1010 hPa | 0 mm | - | 486 W/m² | - |
| 1777849517 | 32.22° C | 15% | 1009.7 hPa | 0 mm | - | 506 W/m² | - |
| 1777848917 | 32.22° C | 16% | 1010.1 hPa | 0 mm | - | 573 W/m² | - |
| 1777848317 | 31.67° C | 16% | 1010.3 hPa | 0 mm | - | 617 W/m² | - |
| 1777847717 | 32.22° C | 16% | 1010.3 hPa | 0 mm | - | 612 W/m² | - |
| 1777847117 | 31.67° C | 16% | 1010.4 hPa | 0 mm | - | 574 W/m² | - |
| 1777846517 | 31.11° C | 17% | 1010.2 hPa | 0 mm | - | 697 W/m² | - |
| 1777845917 | 31.11° C | 24% | 1010.4 hPa | 0 mm | - | 695 W/m² | - |
| 1777845317 | 30.56° C | 25% | 1010.3 hPa | 0 mm | - | 945 W/m² | - |
| 1777844717 | 29.44° C | 26% | 1010.8 hPa | 0 mm | - | 504 W/m² | - |
| 1777844117 | 29.44° C | 26% | 1010.9 hPa | 0 mm | - | 428 W/m² | - |
| 1777843517 | 28.89° C | 27% | 1011.2 hPa | 0 mm | - | 408 W/m² | - |
| 1777842917 | 29.44° C | 27% | 1011.3 hPa | 0 mm | - | 434 W/m² | - |
| 1777842317 | 29.44° C | 26% | 1011.5 hPa | 0 mm | - | 473 W/m² | - |
| 1777841717 | 28.89° C | 27% | 1011.5 hPa | 0 mm | - | 666 W/m² | - |
| 1777841117 | 28.33° C | 27% | 1011.7 hPa | 0 mm | - | 443 W/m² | - |
| 1777840517 | 28.33° C | 26% | 1011.9 hPa | 0 mm | - | 425 W/m² | - |
| 1777839917 | 28.33° C | 26% | 1012.1 hPa | 0 mm | - | 423 W/m² | - |
| 1777839317 | 28.33° C | 25% | 1012.1 hPa | 0 mm | - | 400 W/m² | - |
| 1777838717 | 28.33° C | 26% | 1012.3 hPa | 0 mm | - | 409 W/m² | - |
| 1777838117 | 28.33° C | 26% | 1012.4 hPa | 0 mm | - | 445 W/m² | - |
| 1777837517 | 27.78° C | 28% | 1012.6 hPa | 0 mm | - | 433 W/m² | - |
* Rain latest hour (hover to see other rain measurements)
** Current wind speed in m/s (hover to see current wind gust speed)